Tie Plant, Mississippi
Current Conditions -  °F | °C
As of 9:53 AM on Wednesday 22 Oct 2014 (Local Time) from KGWO Reporting Station
Clear Clear  
Wind Chill: 63°   Ceiling: Unl
Heat Index: 63°   Visibility: 10mi
Dew Point: 48°   Wind: 9mph
Humidity: 58%   Direction: 40°NE
Pressure: 30.2"   Gusts: NA
Location:  33.74°N, 89.79°W
Report Text: KGWO 221453Z AUTO 04008KT 10SM CLR 17/09 A3020 RMK AO2 SLP226 T01720089 51020 TSNO
Loading
Personal Weather Stations






























Interactive Weather Map
Tropical Storm Tracking
New forecast layout! Learn more

10-Day Weather Forecast

Advertisements
Track Severe Weather on mobile